sensor_id;sensor_type;location;lat;lon;timestamp;P1;durP1;ratioP1;P2;durP2;ratioP2
549;SDS011;20066;48.764;9.176;2023-10-19T00:01:27;18.10;;;11.93;;
549;SDS011;20066;48.764;9.176;2023-10-19T00:03:54;20.37;;;11.17;;
549;SDS011;20066;48.764;9.176;2023-10-19T00:06:23;20.50;;;12.70;;
549;SDS011;20066;48.764;9.176;2023-10-19T00:08:51;24.20;;;14.00;;
549;SDS011;20066;48.764;9.176;2023-10-19T00:11:19;26.43;;;12.90;;
549;SDS011;20066;48.764;9.176;2023-10-19T00:13:48;24.57;;;13.70;;
549;SDS011;20066;48.764;9.176;2023-10-19T00:16:17;22.00;;;13.80;;
549;SDS011;20066;48.764;9.176;2023-10-19T00:18:48;23.90;;;12.37;;
549;SDS011;20066;48.764;9.176;2023-10-19T00:21:18;16.40;;;9.90;;
549;SDS011;20066;48.764;9.176;2023-10-19T00:23:46;21.07;;;11.70;;
549;SDS011;20066;48.764;9.176;2023-10-19T00:26:17;15.03;;;9.00;;
549;SDS011;20066;48.764;9.176;2023-10-19T00:28:46;15.30;;;8.50;;
549;SDS011;20066;48.764;9.176;2023-10-19T00:31:18;11.83;;;8.70;;
549;SDS011;20066;48.764;9.176;2023-10-19T00:33:47;15.40;;;8.80;;
549;SDS011;20066;48.764;9.176;2023-10-19T00:36:18;13.57;;;9.30;;
549;SDS011;20066;48.764;9.176;2023-10-19T00:38:47;15.27;;;9.77;;
549;SDS011;20066;48.764;9.176;2023-10-19T00:41:20;12.67;;;9.10;;
549;SDS011;20066;48.764;9.176;2023-10-19T00:43:50;15.67;;;9.87;;
549;SDS011;20066;48.764;9.176;2023-10-19T00:46:24;18.07;;;10.63;;
549;SDS011;20066;48.764;9.176;2023-10-19T00:48:59;14.13;;;9.43;;
549;SDS011;20066;48.764;9.176;2023-10-19T00:51:33;14.70;;;9.37;;
549;SDS011;20066;48.764;9.176;2023-10-19T00:54:12;15.17;;;9.57;;
549;SDS011;20066;48.764;9.176;2023-10-19T00:56:49;16.07;;;8.60;;
549;SDS011;20066;48.764;9.176;2023-10-19T00:59:19;13.93;;;8.90;;
549;SDS011;20066;48.764;9.176;2023-10-19T01:01:50;13.70;;;7.47;;
549;SDS011;20066;48.764;9.176;2023-10-19T01:04:22;8.80;;;6.40;;
549;SDS011;20066;48.764;9.176;2023-10-19T01:06:52;12.77;;;7.40;;
549;SDS011;20066;48.764;9.176;2023-10-19T01:09:31;10.40;;;7.20;;
549;SDS011;20066;48.764;9.176;2023-10-19T01:12:04;10.70;;;7.47;;
549;SDS011;20066;48.764;9.176;2023-10-19T01:15:00;15.50;;;7.20;;
549;SDS011;20066;48.764;9.176;2023-10-19T01:17:32;15.40;;;7.10;;
549;SDS011;20066;48.764;9.176;2023-10-19T01:20:06;11.17;;;6.67;;
549;SDS011;20066;48.764;9.176;2023-10-19T01:22:52;12.97;;;7.10;;
549;SDS011;20066;48.764;9.176;2023-10-19T01:25:32;13.43;;;7.00;;
549;SDS011;20066;48.764;9.176;2023-10-19T01:28:08;11.50;;;6.83;;
549;SDS011;20066;48.764;9.176;2023-10-19T01:30:40;10.97;;;7.00;;
549;SDS011;20066;48.764;9.176;2023-10-19T01:33:08;13.17;;;7.73;;
549;SDS011;20066;48.764;9.176;2023-10-19T01:35:39;11.57;;;7.50;;
549;SDS011;20066;48.764;9.176;2023-10-19T01:38:23;11.50;;;6.87;;
549;SDS011;20066;48.764;9.176;2023-10-19T01:40:51;14.10;;;6.93;;
549;SDS011;20066;48.764;9.176;2023-10-19T01:43:21;12.83;;;7.60;;
549;SDS011;20066;48.764;9.176;2023-10-19T01:45:52;9.60;;;6.73;;
549;SDS011;20066;48.764;9.176;2023-10-19T01:48:21;12.70;;;7.27;;
549;SDS011;20066;48.764;9.176;2023-10-19T01:50:54;13.87;;;8.00;;
549;SDS011;20066;48.764;9.176;2023-10-19T01:53:23;18.10;;;8.20;;
549;SDS011;20066;48.764;9.176;2023-10-19T01:55:51;13.00;;;7.90;;
549;SDS011;20066;48.764;9.176;2023-10-19T01:58:24;17.53;;;8.27;;
549;SDS011;20066;48.764;9.176;2023-10-19T02:00:52;13.30;;;7.40;;
549;SDS011;20066;48.764;9.176;2023-10-19T02:03:22;10.90;;;7.37;;
549;SDS011;20066;48.764;9.176;2023-10-19T02:05:49;13.50;;;8.00;;
549;SDS011;20066;48.764;9.176;2023-10-19T02:08:20;12.77;;;8.37;;
549;SDS011;20066;48.764;9.176;2023-10-19T02:10:53;11.53;;;7.80;;
549;SDS011;20066;48.764;9.176;2023-10-19T02:13:20;15.10;;;7.60;;
549;SDS011;20066;48.764;9.176;2023-10-19T02:15:48;11.17;;;7.27;;
549;SDS011;20066;48.764;9.176;2023-10-19T02:18:17;10.20;;;6.90;;
549;SDS011;20066;48.764;9.176;2023-10-19T02:20:44;11.73;;;8.40;;
549;SDS011;20066;48.764;9.176;2023-10-19T02:23:14;11.60;;;6.83;;
549;SDS011;20066;48.764;9.176;2023-10-19T02:25:41;13.13;;;8.30;;
549;SDS011;20066;48.764;9.176;2023-10-19T02:28:11;10.60;;;6.37;;
549;SDS011;20066;48.764;9.176;2023-10-19T02:30:38;10.93;;;6.87;;
549;SDS011;20066;48.764;9.176;2023-10-19T02:33:07;10.10;;;6.53;;
549;SDS011;20066;48.764;9.176;2023-10-19T02:35:34;10.70;;;6.67;;
549;SDS011;20066;48.764;9.176;2023-10-19T02:38:03;13.70;;;7.17;;
549;SDS011;20066;48.764;9.176;2023-10-19T02:40:30;13.70;;;7.17;;
549;SDS011;20066;48.764;9.176;2023-10-19T02:42:59;10.97;;;7.20;;
549;SDS011;20066;48.764;9.176;2023-10-19T02:45:30;13.83;;;7.90;;
549;SDS011;20066;48.764;9.176;2023-10-19T02:47:59;10.83;;;7.10;;
549;SDS011;20066;48.764;9.176;2023-10-19T02:50:26;13.40;;;8.63;;
549;SDS011;20066;48.764;9.176;2023-10-19T02:52:54;11.73;;;6.70;;
549;SDS011;20066;48.764;9.176;2023-10-19T02:55:20;14.50;;;8.27;;
549;SDS011;20066;48.764;9.176;2023-10-19T02:57:51;12.27;;;7.80;;
549;SDS011;20066;48.764;9.176;2023-10-19T03:00:18;17.60;;;7.23;;
549;SDS011;20066;48.764;9.176;2023-10-19T03:02:48;16.10;;;8.13;;
549;SDS011;20066;48.764;9.176;2023-10-19T03:05:18;12.80;;;8.30;;
549;SDS011;20066;48.764;9.176;2023-10-19T03:07:47;14.53;;;8.13;;
549;SDS011;20066;48.764;9.176;2023-10-19T03:10:15;12.03;;;7.40;;
549;SDS011;20066;48.764;9.176;2023-10-19T03:12:50;11.57;;;8.07;;
549;SDS011;20066;48.764;9.176;2023-10-19T03:15:17;14.03;;;9.00;;
549;SDS011;20066;48.764;9.176;2023-10-19T03:17:49;10.87;;;7.80;;
549;SDS011;20066;48.764;9.176;2023-10-19T03:20:16;13.50;;;8.50;;
549;SDS011;20066;48.764;9.176;2023-10-19T03:22:49;19.00;;;8.70;;
549;SDS011;20066;48.764;9.176;2023-10-19T03:25:17;13.07;;;9.20;;
549;SDS011;20066;48.764;9.176;2023-10-19T03:28:02;14.40;;;9.00;;
549;SDS011;20066;48.764;9.176;2023-10-19T03:30:35;15.60;;;8.20;;
549;SDS011;20066;48.764;9.176;2023-10-19T03:33:07;14.83;;;8.30;;
549;SDS011;20066;48.764;9.176;2023-10-19T03:35:36;14.47;;;9.07;;
549;SDS011;20066;48.764;9.176;2023-10-19T03:38:04;13.47;;;8.30;;
549;SDS011;20066;48.764;9.176;2023-10-19T03:40:41;14.43;;;9.00;;
549;SDS011;20066;48.764;9.176;2023-10-19T03:43:13;11.80;;;8.10;;
549;SDS011;20066;48.764;9.176;2023-10-19T03:45:48;13.13;;;7.40;;
549;SDS011;20066;48.764;9.176;2023-10-19T03:48:21;9.80;;;6.80;;
549;SDS011;20066;48.764;9.176;2023-10-19T03:50:53;12.17;;;6.30;;
549;SDS011;20066;48.764;9.176;2023-10-19T03:53:22;10.50;;;6.50;;
549;SDS011;20066;48.764;9.176;2023-10-19T03:55:50;14.27;;;6.43;;
549;SDS011;20066;48.764;9.176;2023-10-19T03:58:22;12.87;;;6.90;;
549;SDS011;20066;48.764;9.176;2023-10-19T04:00:50;13.07;;;10.40;;
549;SDS011;20066;48.764;9.176;2023-10-19T04:03:18;11.53;;;6.90;;
549;SDS011;20066;48.764;9.176;2023-10-19T04:05:49;7.80;;;5.37;;
549;SDS011;20066;48.764;9.176;2023-10-19T04:08:17;6.93;;;6.33;;
549;SDS011;20066;48.764;9.176;2023-10-19T04:10:47;10.57;;;6.73;;
549;SDS011;20066;48.764;9.176;2023-10-19T04:13:34;14.23;;;7.10;;
549;SDS011;20066;48.764;9.176;2023-10-19T04:16:03;13.53;;;6.50;;
549;SDS011;20066;48.764;9.176;2023-10-19T04:18:32;11.50;;;6.40;;
549;SDS011;20066;48.764;9.176;2023-10-19T04:21:02;13.47;;;6.50;;
549;SDS011;20066;48.764;9.176;2023-10-19T04:23:30;12.67;;;6.50;;
549;SDS011;20066;48.764;9.176;2023-10-19T04:26:01;16.70;;;6.87;;
549;SDS011;20066;48.764;9.176;2023-10-19T04:28:37;10.67;;;6.90;;
549;SDS011;20066;48.764;9.176;2023-10-19T04:31:11;10.27;;;6.50;;
549;SDS011;20066;48.764;9.176;2023-10-19T04:33:42;10.63;;;6.30;;
549;SDS011;20066;48.764;9.176;2023-10-19T04:36:14;11.83;;;5.63;;
549;SDS011;20066;48.764;9.176;2023-10-19T04:38:42;8.77;;;5.70;;
549;SDS011;20066;48.764;9.176;2023-10-19T04:41:11;11.27;;;6.30;;
549;SDS011;20066;48.764;9.176;2023-10-19T04:43:39;9.47;;;6.70;;
549;SDS011;20066;48.764;9.176;2023-10-19T04:46:10;13.00;;;7.33;;
549;SDS011;20066;48.764;9.176;2023-10-19T04:48:39;10.87;;;6.37;;
549;SDS011;20066;48.764;9.176;2023-10-19T04:51:08;11.07;;;6.20;;
549;SDS011;20066;48.764;9.176;2023-10-19T04:53:39;13.77;;;6.57;;
549;SDS011;20066;48.764;9.176;2023-10-19T04:56:08;13.00;;;6.47;;
549;SDS011;20066;48.764;9.176;2023-10-19T04:58:36;12.17;;;7.03;;
549;SDS011;20066;48.764;9.176;2023-10-19T05:01:04;10.20;;;6.50;;
549;SDS011;20066;48.764;9.176;2023-10-19T05:03:32;9.40;;;7.00;;
549;SDS011;20066;48.764;9.176;2023-10-19T05:06:01;11.40;;;7.17;;
549;SDS011;20066;48.764;9.176;2023-10-19T05:08:29;14.40;;;7.10;;
549;SDS011;20066;48.764;9.176;2023-10-19T05:11:00;9.93;;;6.07;;
549;SDS011;20066;48.764;9.176;2023-10-19T05:13:29;11.67;;;6.23;;
549;SDS011;20066;48.764;9.176;2023-10-19T05:15:59;12.87;;;6.27;;
549;SDS011;20066;48.764;9.176;2023-10-19T05:18:27;9.77;;;6.67;;
549;SDS011;20066;48.764;9.176;2023-10-19T05:20:56;10.60;;;6.60;;
549;SDS011;20066;48.764;9.176;2023-10-19T05:23:24;11.10;;;6.10;;
549;SDS011;20066;48.764;9.176;2023-10-19T05:25:53;13.40;;;6.10;;
549;SDS011;20066;48.764;9.176;2023-10-19T05:28:28;9.43;;;5.80;;
549;SDS011;20066;48.764;9.176;2023-10-19T05:30:56;17.70;;;6.80;;
549;SDS011;20066;48.764;9.176;2023-10-19T05:33:30;10.10;;;6.43;;
549;SDS011;20066;48.764;9.176;2023-10-19T05:35:59;13.00;;;6.67;;
549;SDS011;20066;48.764;9.176;2023-10-19T05:38:28;11.50;;;5.73;;
549;SDS011;20066;48.764;9.176;2023-10-19T05:40:58;16.33;;;6.67;;
549;SDS011;20066;48.764;9.176;2023-10-19T05:43:26;10.63;;;6.87;;
549;SDS011;20066;48.764;9.176;2023-10-19T05:45:56;12.33;;;6.10;;
549;SDS011;20066;48.764;9.176;2023-10-19T05:48:24;11.10;;;6.80;;
549;SDS011;20066;48.764;9.176;2023-10-19T05:50:52;13.60;;;6.80;;
549;SDS011;20066;48.764;9.176;2023-10-19T05:53:20;9.53;;;6.67;;
549;SDS011;20066;48.764;9.176;2023-10-19T05:55:48;12.33;;;6.80;;
549;SDS011;20066;48.764;9.176;2023-10-19T05:58:16;12.10;;;6.83;;
549;SDS011;20066;48.764;9.176;2023-10-19T06:00:44;11.27;;;7.20;;
549;SDS011;20066;48.764;9.176;2023-10-19T06:03:14;16.97;;;7.93;;
549;SDS011;20066;48.764;9.176;2023-10-19T06:05:42;9.60;;;6.50;;
549;SDS011;20066;48.764;9.176;2023-10-19T06:08:11;9.30;;;6.33;;
549;SDS011;20066;48.764;9.176;2023-10-19T06:10:40;12.40;;;6.27;;
549;SDS011;20066;48.764;9.176;2023-10-19T06:13:11;10.17;;;6.47;;
549;SDS011;20066;48.764;9.176;2023-10-19T06:15:46;9.87;;;6.13;;
549;SDS011;20066;48.764;9.176;2023-10-19T06:18:22;12.60;;;5.77;;
549;SDS011;20066;48.764;9.176;2023-10-19T06:21:04;22.70;;;11.33;;
549;SDS011;20066;48.764;9.176;2023-10-19T06:23:32;38.50;;;15.63;;
549;SDS011;20066;48.764;9.176;2023-10-19T06:25:59;45.93;;;16.93;;
549;SDS011;20066;48.764;9.176;2023-10-19T06:28:35;49.77;;;20.67;;
549;SDS011;20066;48.764;9.176;2023-10-19T06:31:05;52.57;;;20.03;;
549;SDS011;20066;48.764;9.176;2023-10-19T06:33:34;45.53;;;20.90;;
549;SDS011;20066;48.764;9.176;2023-10-19T06:36:03;53.03;;;20.80;;
549;SDS011;20066;48.764;9.176;2023-10-19T06:38:31;52.17;;;19.13;;
549;SDS011;20066;48.764;9.176;2023-10-19T06:40:59;57.50;;;19.50;;
549;SDS011;20066;48.764;9.176;2023-10-19T06:43:29;57.13;;;19.70;;
549;SDS011;20066;48.764;9.176;2023-10-19T06:45:59;50.53;;;19.50;;
549;SDS011;20066;48.764;9.176;2023-10-19T06:48:27;54.33;;;19.23;;
549;SDS011;20066;48.764;9.176;2023-10-19T06:50:57;50.53;;;18.33;;
549;SDS011;20066;48.764;9.176;2023-10-19T06:53:26;55.97;;;20.20;;
549;SDS011;20066;48.764;9.176;2023-10-19T06:55:55;51.80;;;20.63;;
549;SDS011;20066;48.764;9.176;2023-10-19T06:58:23;53.83;;;21.10;;
549;SDS011;20066;48.764;9.176;2023-10-19T07:00:52;63.63;;;20.57;;
549;SDS011;20066;48.764;9.176;2023-10-19T07:03:26;47.97;;;21.20;;
549;SDS011;20066;48.764;9.176;2023-10-19T07:05:56;54.17;;;20.10;;
549;SDS011;20066;48.764;9.176;2023-10-19T07:08:24;49.93;;;19.67;;
549;SDS011;20066;48.764;9.176;2023-10-19T07:10:56;46.17;;;19.03;;
549;SDS011;20066;48.764;9.176;2023-10-19T07:13:25;46.20;;;19.70;;
549;SDS011;20066;48.764;9.176;2023-10-19T07:15:53;49.33;;;19.10;;
549;SDS011;20066;48.764;9.176;2023-10-19T07:18:21;54.70;;;20.57;;
549;SDS011;20066;48.764;9.176;2023-10-19T07:20:50;60.37;;;19.00;;
549;SDS011;20066;48.764;9.176;2023-10-19T07:23:20;59.43;;;20.00;;
549;SDS011;20066;48.764;9.176;2023-10-19T07:25:48;44.97;;;18.07;;
549;SDS011;20066;48.764;9.176;2023-10-19T07:28:21;50.30;;;18.53;;
549;SDS011;20066;48.764;9.176;2023-10-19T07:30:52;44.13;;;17.60;;
549;SDS011;20066;48.764;9.176;2023-10-19T07:33:20;49.07;;;18.57;;
549;SDS011;20066;48.764;9.176;2023-10-19T07:35:49;42.73;;;17.77;;
549;SDS011;20066;48.764;9.176;2023-10-19T07:38:22;52.83;;;20.40;;
549;SDS011;20066;48.764;9.176;2023-10-19T07:40:52;51.00;;;19.70;;
549;SDS011;20066;48.764;9.176;2023-10-19T07:43:20;45.97;;;19.50;;
549;SDS011;20066;48.764;9.176;2023-10-19T07:45:50;50.87;;;19.80;;
549;SDS011;20066;48.764;9.176;2023-10-19T07:48:20;42.90;;;16.73;;
549;SDS011;20066;48.764;9.176;2023-10-19T07:50:49;47.03;;;16.80;;
549;SDS011;20066;48.764;9.176;2023-10-19T07:53:19;41.70;;;15.90;;
549;SDS011;20066;48.764;9.176;2023-10-19T07:55:49;27.37;;;14.83;;
549;SDS011;20066;48.764;9.176;2023-10-19T07:58:17;38.00;;;15.77;;
549;SDS011;20066;48.764;9.176;2023-10-19T08:00:45;38.13;;;15.73;;
549;SDS011;20066;48.764;9.176;2023-10-19T08:03:13;40.63;;;15.30;;
549;SDS011;20066;48.764;9.176;2023-10-19T08:05:42;33.47;;;15.17;;
549;SDS011;20066;48.764;9.176;2023-10-19T08:08:10;28.80;;;13.03;;
549;SDS011;20066;48.764;9.176;2023-10-19T08:10:39;27.10;;;13.17;;
549;SDS011;20066;48.764;9.176;2023-10-19T08:13:08;34.93;;;13.83;;
549;SDS011;20066;48.764;9.176;2023-10-19T08:15:37;30.70;;;12.40;;
549;SDS011;20066;48.764;9.176;2023-10-19T08:18:04;20.17;;;10.67;;
549;SDS011;20066;48.764;9.176;2023-10-19T08:20:32;23.80;;;11.70;;
549;SDS011;20066;48.764;9.176;2023-10-19T08:23:03;25.00;;;11.80;;
549;SDS011;20066;48.764;9.176;2023-10-19T08:25:32;28.60;;;12.33;;
549;SDS011;20066;48.764;9.176;2023-10-19T08:28:22;22.37;;;10.73;;
549;SDS011;20066;48.764;9.176;2023-10-19T08:30:50;26.10;;;12.20;;
549;SDS011;20066;48.764;9.176;2023-10-19T08:33:27;22.97;;;11.03;;
549;SDS011;20066;48.764;9.176;2023-10-19T08:35:56;27.20;;;12.57;;
549;SDS011;20066;48.764;9.176;2023-10-19T08:38:26;27.17;;;13.30;;
549;SDS011;20066;48.764;9.176;2023-10-19T08:40:54;26.77;;;13.13;;
549;SDS011;20066;48.764;9.176;2023-10-19T08:43:24;23.50;;;11.90;;
549;SDS011;20066;48.764;9.176;2023-10-19T08:45:54;30.77;;;12.20;;
549;SDS011;20066;48.764;9.176;2023-10-19T08:48:23;23.07;;;11.30;;
549;SDS011;20066;48.764;9.176;2023-10-19T08:50:51;19.40;;;11.07;;
549;SDS011;20066;48.764;9.176;2023-10-19T08:53:22;30.20;;;13.20;;
549;SDS011;20066;48.764;9.176;2023-10-19T08:55:51;29.03;;;13.00;;
549;SDS011;20066;48.764;9.176;2023-10-19T08:58:21;23.50;;;11.27;;
549;SDS011;20066;48.764;9.176;2023-10-19T09:00:51;30.97;;;11.40;;
549;SDS011;20066;48.764;9.176;2023-10-19T09:03:21;19.63;;;10.43;;
549;SDS011;20066;48.764;9.176;2023-10-19T09:05:51;15.63;;;8.90;;
549;SDS011;20066;48.764;9.176;2023-10-19T09:08:20;18.27;;;9.70;;
549;SDS011;20066;48.764;9.176;2023-10-19T09:10:49;16.50;;;8.83;;
549;SDS011;20066;48.764;9.176;2023-10-19T09:13:19;11.20;;;6.43;;
549;SDS011;20066;48.764;9.176;2023-10-19T09:15:51;13.10;;;5.73;;
549;SDS011;20066;48.764;9.176;2023-10-19T09:18:23;7.70;;;4.90;;
549;SDS011;20066;48.764;9.176;2023-10-19T09:20:55;16.17;;;4.93;;
549;SDS011;20066;48.764;9.176;2023-10-19T09:23:29;15.13;;;5.97;;
549;SDS011;20066;48.764;9.176;2023-10-19T09:25:58;11.93;;;4.90;;
549;SDS011;20066;48.764;9.176;2023-10-19T09:28:29;11.80;;;5.07;;
549;SDS011;20066;48.764;9.176;2023-10-19T09:31:01;14.03;;;5.80;;
549;SDS011;20066;48.764;9.176;2023-10-19T09:33:31;16.03;;;5.50;;
549;SDS011;20066;48.764;9.176;2023-10-19T09:36:02;12.30;;;5.17;;
549;SDS011;20066;48.764;9.176;2023-10-19T09:38:32;10.77;;;5.27;;
549;SDS011;20066;48.764;9.176;2023-10-19T09:41:01;12.20;;;4.47;;
549;SDS011;20066;48.764;9.176;2023-10-19T09:43:31;8.80;;;4.70;;
549;SDS011;20066;48.764;9.176;2023-10-19T09:46:05;9.90;;;3.80;;
549;SDS011;20066;48.764;9.176;2023-10-19T09:48:35;5.80;;;3.67;;
549;SDS011;20066;48.764;9.176;2023-10-19T09:51:09;7.50;;;4.43;;
549;SDS011;20066;48.764;9.176;2023-10-19T09:53:40;5.47;;;3.20;;
549;SDS011;20066;48.764;9.176;2023-10-19T09:56:10;5.57;;;3.17;;
549;SDS011;20066;48.764;9.176;2023-10-19T09:58:45;6.33;;;3.77;;
549;SDS011;20066;48.764;9.176;2023-10-19T10:01:17;5.30;;;3.50;;
549;SDS011;20066;48.764;9.176;2023-10-19T10:03:48;6.10;;;3.80;;
549;SDS011;20066;48.764;9.176;2023-10-19T10:06:26;4.20;;;3.00;;
549;SDS011;20066;48.764;9.176;2023-10-19T10:08:56;9.00;;;3.80;;
549;SDS011;20066;48.764;9.176;2023-10-19T10:11:27;12.07;;;3.67;;
549;SDS011;20066;48.764;9.176;2023-10-19T10:13:55;6.10;;;3.47;;
549;SDS011;20066;48.764;9.176;2023-10-19T10:16:26;8.97;;;4.20;;
549;SDS011;20066;48.764;9.176;2023-10-19T10:18:56;6.07;;;3.80;;
549;SDS011;20066;48.764;9.176;2023-10-19T10:21:26;6.53;;;4.40;;
549;SDS011;20066;48.764;9.176;2023-10-19T10:23:57;6.50;;;3.70;;
549;SDS011;20066;48.764;9.176;2023-10-19T10:26:26;8.60;;;4.73;;
549;SDS011;20066;48.764;9.176;2023-10-19T10:29:09;5.57;;;4.30;;
549;SDS011;20066;48.764;9.176;2023-10-19T10:31:44;9.77;;;4.43;;
549;SDS011;20066;48.764;9.176;2023-10-19T10:37:11;8.37;;;6.40;;
549;SDS011;20066;48.764;9.176;2023-10-19T10:39:40;8.20;;;6.67;;
549;SDS011;20066;48.764;9.176;2023-10-19T10:42:11;8.60;;;6.10;;
549;SDS011;20066;48.764;9.176;2023-10-19T10:44:43;7.20;;;5.70;;
549;SDS011;20066;48.764;9.176;2023-10-19T10:47:17;8.83;;;5.83;;
549;SDS011;20066;48.764;9.176;2023-10-19T10:49:49;6.03;;;4.93;;
549;SDS011;20066;48.764;9.176;2023-10-19T10:52:24;7.77;;;5.30;;
549;SDS011;20066;48.764;9.176;2023-10-19T10:54:55;6.97;;;4.87;;
549;SDS011;20066;48.764;9.176;2023-10-19T10:57:24;14.03;;;5.60;;
549;SDS011;20066;48.764;9.176;2023-10-19T11:00:02;6.07;;;5.10;;
549;SDS011;20066;48.764;9.176;2023-10-19T11:02:35;6.23;;;5.90;;
549;SDS011;20066;48.764;9.176;2023-10-19T11:05:10;8.00;;;6.73;;
549;SDS011;20066;48.764;9.176;2023-10-19T11:07:39;7.30;;;5.83;;
549;SDS011;20066;48.764;9.176;2023-10-19T11:10:08;11.47;;;7.87;;
549;SDS011;20066;48.764;9.176;2023-10-19T11:12:37;9.93;;;7.27;;
549;SDS011;20066;48.764;9.176;2023-10-19T11:15:05;18.60;;;7.70;;
549;SDS011;20066;48.764;9.176;2023-10-19T11:17:43;13.80;;;7.57;;
549;SDS011;20066;48.764;9.176;2023-10-19T11:20:20;11.67;;;6.63;;
549;SDS011;20066;48.764;9.176;2023-10-19T11:22:49;7.33;;;5.57;;
549;SDS011;20066;48.764;9.176;2023-10-19T11:25:19;10.50;;;7.27;;
549;SDS011;20066;48.764;9.176;2023-10-19T11:27:48;9.77;;;4.83;;
549;SDS011;20066;48.764;9.176;2023-10-19T11:30:22;8.33;;;4.73;;
549;SDS011;20066;48.764;9.176;2023-10-19T11:32:53;8.50;;;3.87;;
549;SDS011;20066;48.764;9.176;2023-10-19T11:35:24;6.43;;;3.80;;
549;SDS011;20066;48.764;9.176;2023-10-19T11:37:52;5.10;;;3.50;;
549;SDS011;20066;48.764;9.176;2023-10-19T11:40:22;6.60;;;3.60;;
549;SDS011;20066;48.764;9.176;2023-10-19T11:42:51;6.10;;;3.60;;
549;SDS011;20066;48.764;9.176;2023-10-19T11:45:22;7.00;;;3.37;;
549;SDS011;20066;48.764;9.176;2023-10-19T11:47:50;5.33;;;3.00;;
549;SDS011;20066;48.764;9.176;2023-10-19T11:50:21;4.87;;;3.43;;
549;SDS011;20066;48.764;9.176;2023-10-19T11:52:50;11.87;;;5.80;;
549;SDS011;20066;48.764;9.176;2023-10-19T11:55:19;8.80;;;4.07;;
549;SDS011;20066;48.764;9.176;2023-10-19T11:57:48;5.47;;;3.23;;
549;SDS011;20066;48.764;9.176;2023-10-19T12:00:16;6.57;;;3.70;;
549;SDS011;20066;48.764;9.176;2023-10-19T12:02:49;5.33;;;3.10;;
549;SDS011;20066;48.764;9.176;2023-10-19T12:05:20;7.47;;;3.23;;
549;SDS011;20066;48.764;9.176;2023-10-19T12:07:47;8.50;;;4.23;;
549;SDS011;20066;48.764;9.176;2023-10-19T12:10:16;4.63;;;3.50;;
549;SDS011;20066;48.764;9.176;2023-10-19T12:12:44;4.53;;;3.50;;
549;SDS011;20066;48.764;9.176;2023-10-19T12:15:26;7.67;;;3.10;;
549;SDS011;20066;48.764;9.176;2023-10-19T12:17:55;3.63;;;2.70;;
549;SDS011;20066;48.764;9.176;2023-10-19T12:20:25;4.60;;;2.60;;
549;SDS011;20066;48.764;9.176;2023-10-19T12:22:53;5.77;;;3.00;;
549;SDS011;20066;48.764;9.176;2023-10-19T12:25:22;6.33;;;2.90;;
549;SDS011;20066;48.764;9.176;2023-10-19T12:28:15;5.30;;;2.70;;
549;SDS011;20066;48.764;9.176;2023-10-19T12:30:42;8.07;;;4.10;;
549;SDS011;20066;48.764;9.176;2023-10-19T12:33:11;11.33;;;3.70;;
549;SDS011;20066;48.764;9.176;2023-10-19T12:35:42;8.73;;;4.10;;
549;SDS011;20066;48.764;9.176;2023-10-19T12:38:17;5.30;;;4.13;;
549;SDS011;20066;48.764;9.176;2023-10-19T12:40:47;7.23;;;3.70;;
549;SDS011;20066;48.764;9.176;2023-10-19T12:43:17;5.80;;;3.53;;
549;SDS011;20066;48.764;9.176;2023-10-19T12:45:48;13.60;;;4.63;;
549;SDS011;20066;48.764;9.176;2023-10-19T12:48:20;6.97;;;4.47;;
549;SDS011;20066;48.764;9.176;2023-10-19T12:50:49;8.07;;;4.70;;
549;SDS011;20066;48.764;9.176;2023-10-19T12:53:17;7.83;;;4.43;;
549;SDS011;20066;48.764;9.176;2023-10-19T12:55:45;8.03;;;4.43;;
549;SDS011;20066;48.764;9.176;2023-10-19T12:58:13;7.07;;;4.43;;
549;SDS011;20066;48.764;9.176;2023-10-19T13:00:45;7.30;;;4.80;;
549;SDS011;20066;48.764;9.176;2023-10-19T13:03:15;5.93;;;4.30;;
549;SDS011;20066;48.764;9.176;2023-10-19T13:05:43;6.77;;;5.10;;
549;SDS011;20066;48.764;9.176;2023-10-19T13:08:13;9.23;;;5.23;;
549;SDS011;20066;48.764;9.176;2023-10-19T13:10:42;11.37;;;5.47;;
549;SDS011;20066;48.764;9.176;2023-10-19T13:13:12;8.90;;;5.53;;
549;SDS011;20066;48.764;9.176;2023-10-19T13:15:41;9.83;;;6.57;;
549;SDS011;20066;48.764;9.176;2023-10-19T13:18:12;12.00;;;7.40;;
549;SDS011;20066;48.764;9.176;2023-10-19T13:20:46;13.00;;;6.80;;
549;SDS011;20066;48.764;9.176;2023-10-19T13:23:20;12.63;;;6.40;;
549;SDS011;20066;48.764;9.176;2023-10-19T13:25:49;11.70;;;6.33;;
549;SDS011;20066;48.764;9.176;2023-10-19T13:28:20;12.50;;;6.87;;
549;SDS011;20066;48.764;9.176;2023-10-19T13:30:49;10.97;;;6.40;;
549;SDS011;20066;48.764;9.176;2023-10-19T13:33:19;9.60;;;6.90;;
549;SDS011;20066;48.764;9.176;2023-10-19T13:35:48;14.33;;;7.60;;
549;SDS011;20066;48.764;9.176;2023-10-19T13:38:16;9.10;;;6.20;;
549;SDS011;20066;48.764;9.176;2023-10-19T13:40:48;10.20;;;6.30;;
549;SDS011;20066;48.764;9.176;2023-10-19T13:43:16;13.60;;;7.00;;
549;SDS011;20066;48.764;9.176;2023-10-19T13:45:46;10.10;;;7.07;;
549;SDS011;20066;48.764;9.176;2023-10-19T13:48:15;9.70;;;6.37;;
549;SDS011;20066;48.764;9.176;2023-10-19T13:50:44;8.93;;;6.67;;
549;SDS011;20066;48.764;9.176;2023-10-19T13:53:15;13.47;;;7.27;;
549;SDS011;20066;48.764;9.176;2023-10-19T13:55:43;10.23;;;7.47;;
549;SDS011;20066;48.764;9.176;2023-10-19T13:58:13;10.20;;;6.67;;
549;SDS011;20066;48.764;9.176;2023-10-19T14:00:41;14.47;;;9.33;;
549;SDS011;20066;48.764;9.176;2023-10-19T14:03:11;11.90;;;7.43;;
549;SDS011;20066;48.764;9.176;2023-10-19T14:05:41;13.60;;;7.37;;
549;SDS011;20066;48.764;9.176;2023-10-19T14:08:14;13.93;;;7.37;;
549;SDS011;20066;48.764;9.176;2023-10-19T14:10:52;12.83;;;8.33;;
549;SDS011;20066;48.764;9.176;2023-10-19T14:13:21;12.53;;;8.60;;
549;SDS011;20066;48.764;9.176;2023-10-19T14:15:49;12.30;;;7.93;;
549;SDS011;20066;48.764;9.176;2023-10-19T14:18:17;13.70;;;8.10;;
549;SDS011;20066;48.764;9.176;2023-10-19T14:20:45;17.57;;;9.17;;
549;SDS011;20066;48.764;9.176;2023-10-19T14:23:13;11.60;;;8.23;;
549;SDS011;20066;48.764;9.176;2023-10-19T14:25:41;19.33;;;9.07;;
549;SDS011;20066;48.764;9.176;2023-10-19T14:28:11;13.70;;;8.73;;
549;SDS011;20066;48.764;9.176;2023-10-19T14:30:40;16.43;;;8.73;;
549;SDS011;20066;48.764;9.176;2023-10-19T14:33:08;12.97;;;9.03;;
549;SDS011;20066;48.764;9.176;2023-10-19T14:35:38;18.47;;;10.13;;
549;SDS011;20066;48.764;9.176;2023-10-19T14:38:09;15.53;;;9.70;;
549;SDS011;20066;48.764;9.176;2023-10-19T14:40:40;18.60;;;9.83;;
549;SDS011;20066;48.764;9.176;2023-10-19T14:43:11;13.97;;;10.00;;
549;SDS011;20066;48.764;9.176;2023-10-19T14:45:41;16.90;;;10.00;;
549;SDS011;20066;48.764;9.176;2023-10-19T14:48:09;16.30;;;9.90;;
549;SDS011;20066;48.764;9.176;2023-10-19T14:50:37;19.37;;;10.50;;
549;SDS011;20066;48.764;9.176;2023-10-19T14:53:05;15.30;;;8.67;;
549;SDS011;20066;48.764;9.176;2023-10-19T14:55:35;17.27;;;9.93;;
549;SDS011;20066;48.764;9.176;2023-10-19T14:58:03;10.83;;;7.53;;
549;SDS011;20066;48.764;9.176;2023-10-19T15:00:32;16.80;;;8.07;;
549;SDS011;20066;48.764;9.176;2023-10-19T15:03:05;16.87;;;9.00;;
549;SDS011;20066;48.764;9.176;2023-10-19T15:05:37;12.73;;;8.73;;
549;SDS011;20066;48.764;9.176;2023-10-19T15:08:07;13.53;;;8.37;;
549;SDS011;20066;48.764;9.176;2023-10-19T15:10:41;14.57;;;9.40;;
549;SDS011;20066;48.764;9.176;2023-10-19T15:13:09;16.27;;;10.10;;
549;SDS011;20066;48.764;9.176;2023-10-19T15:15:37;14.13;;;9.17;;
549;SDS011;20066;48.764;9.176;2023-10-19T15:18:07;12.90;;;8.60;;
549;SDS011;20066;48.764;9.176;2023-10-19T15:20:35;17.03;;;10.70;;
549;SDS011;20066;48.764;9.176;2023-10-19T15:23:03;13.13;;;8.87;;
549;SDS011;20066;48.764;9.176;2023-10-19T15:25:31;13.47;;;8.90;;